Wilmot, Arkansas
Current Conditions -  °F | °C
As of 3:55 PM on Wednesday 28 Jan 2015 (Local Time) from KBQP Reporting Station
Clear Clear  
Wind Chill: 70°   Ceiling: Unl
Heat Index: 70°   Visibility: 10mi
Dew Point: 40°   Wind: 10mph
Humidity: 34%   Direction: 190°S
Pressure: 30.14"   Gusts: NA
Location:  33.06°N, 91.57°W
Report Text: KBQP 282155Z AUTO 19009KT 10SM CLR 21/05 A3014 RMK AO2 T02110045
Loading
Personal Weather Stations






























Interactive Weather Map New forecast layout! Learn more

10-Day Weather Forecast

Advertisements
Track Severe Weather on mobile